createdAt,value
2023-11-30T00:01:11.058Z,4.72
2023-11-30T00:03:38.748Z,3.05
2023-11-30T00:06:06.574Z,4.15
2023-11-30T00:08:34.100Z,4.07
2023-11-30T00:11:01.618Z,1.30
2023-11-30T00:13:29.327Z,3.17
2023-11-30T00:15:56.796Z,2.72
2023-11-30T00:18:24.364Z,3.67
2023-11-30T00:20:51.987Z,4.38
2023-11-30T00:23:19.516Z,3.63
2023-11-30T00:25:49.271Z,3.65
2023-11-30T00:28:16.706Z,6.00
2023-11-30T00:30:44.236Z,4.38
2023-11-30T00:33:11.762Z,3.60
2023-11-30T00:35:39.342Z,4.13
2023-11-30T00:38:06.749Z,5.55
2023-11-30T00:40:34.264Z,5.93
2023-11-30T00:43:02.055Z,3.38
2023-11-30T00:45:30.262Z,2.58
2023-11-30T00:48:00.229Z,4.00
2023-11-30T00:50:27.893Z,3.20
2023-11-30T00:52:55.311Z,4.93
2023-11-30T00:55:22.848Z,4.55
2023-11-30T00:57:52.795Z,5.93
2023-11-30T01:00:20.450Z,6.75
2023-11-30T01:02:47.928Z,5.35
2023-11-30T01:05:15.420Z,4.60
2023-11-30T01:07:42.886Z,4.32
2023-11-30T01:10:12.767Z,1.77
2023-11-30T01:12:40.262Z,0.43
2023-11-30T01:15:08.213Z,1.92
2023-11-30T01:17:35.796Z,1.58
2023-11-30T01:20:03.323Z,0.65
2023-11-30T01:22:30.800Z,0.20
2023-11-30T01:24:58.241Z,0.63
2023-11-30T01:27:25.786Z,1.90
2023-11-30T01:29:53.273Z,0.30
2023-11-30T01:32:20.800Z,0.75
2023-11-30T01:34:48.276Z,2.40
2023-11-30T01:37:15.891Z,3.97
2023-11-30T01:39:43.365Z,3.50
2023-11-30T01:42:10.922Z,4.80
2023-11-30T01:44:39.453Z,3.45
2023-11-30T01:47:09.779Z,3.30
2023-11-30T01:49:37.314Z,3.75
2023-11-30T01:52:04.898Z,3.60
2023-11-30T01:54:32.575Z,4.47
2023-11-30T01:57:01.066Z,5.13
2023-11-30T01:59:28.846Z,5.10
2023-11-30T02:01:56.429Z,3.58
2023-11-30T02:04:24.237Z,4.25
2023-11-30T02:06:51.705Z,3.63
2023-11-30T02:09:19.234Z,5.53
2023-11-30T02:11:46.926Z,4.38
2023-11-30T02:14:14.388Z,4.65
2023-11-30T02:16:44.186Z,4.55
2023-11-30T02:19:14.504Z,3.55
2023-11-30T02:21:47.207Z,4.43
2023-11-30T02:24:14.741Z,4.03
2023-11-30T02:26:42.230Z,5.07
2023-11-30T02:29:09.654Z,3.15
2023-11-30T02:31:37.116Z,3.85
2023-11-30T02:34:04.710Z,3.75
2023-11-30T02:36:32.210Z,3.17
2023-11-30T02:38:59.684Z,3.60
2023-11-30T02:41:27.269Z,2.72
2023-11-30T02:43:55.699Z,2.25
2023-11-30T02:46:23.250Z,3.05
2023-11-30T02:48:50.875Z,3.78
2023-11-30T02:51:18.494Z,4.03
2023-11-30T02:53:46.135Z,3.97
2023-11-30T02:56:13.641Z,4.82
2023-11-30T02:58:41.059Z,3.67
2023-11-30T03:01:08.520Z,4.03
2023-11-30T03:03:38.327Z,2.58
2023-11-30T03:06:11.384Z,2.63
2023-11-30T03:08:41.774Z,3.42
2023-11-30T03:11:11.561Z,4.25
2023-11-30T03:13:39.008Z,3.35
2023-11-30T03:16:06.585Z,3.45
2023-11-30T03:18:40.576Z,5.20
2023-11-30T03:21:16.246Z,4.80
2023-11-30T03:23:43.773Z,5.72
2023-11-30T03:26:11.223Z,2.97
2023-11-30T03:28:38.908Z,2.75
2023-11-30T03:31:06.596Z,3.75
2023-11-30T03:33:34.179Z,5.18
2023-11-30T03:36:01.744Z,4.28
2023-11-30T03:38:29.242Z,3.83
2023-11-30T03:40:56.764Z,4.07
2023-11-30T03:43:27.597Z,3.92
2023-11-30T03:45:55.106Z,4.45
2023-11-30T03:48:22.744Z,4.43
2023-11-30T03:50:50.263Z,3.83
2023-11-30T03:53:17.822Z,5.43
2023-11-30T03:55:45.309Z,2.73
2023-11-30T03:58:12.767Z,4.10
2023-11-30T04:00:40.417Z,2.80
2023-11-30T04:03:07.895Z,3.25
2023-11-30T04:05:35.582Z,5.82
2023-11-30T04:08:03.052Z,3.92
2023-11-30T04:10:30.453Z,7.60
2023-11-30T04:12:57.987Z,5.85
2023-11-30T04:15:25.516Z,3.90
2023-11-30T04:17:53.012Z,4.57
2023-11-30T04:20:22.954Z,6.97
2023-11-30T04:22:50.513Z,5.10
2023-11-30T04:25:18.054Z,4.32
2023-11-30T04:27:45.569Z,6.10
2023-11-30T04:30:13.165Z,3.05
2023-11-30T04:32:40.610Z,9.45
2023-11-30T04:35:08.321Z,8.57
2023-11-30T04:37:35.850Z,7.55
2023-11-30T04:40:03.400Z,5.93
2023-11-30T04:42:30.898Z,4.55
2023-11-30T04:44:58.532Z,7.05
2023-11-30T04:47:28.761Z,6.30
2023-11-30T04:49:56.828Z,7.88
2023-11-30T04:52:25.105Z,5.63
2023-11-30T04:54:52.618Z,6.47
2023-11-30T04:57:22.506Z,7.90
2023-11-30T04:59:52.575Z,5.40
2023-11-30T05:02:20.191Z,7.13
2023-11-30T05:04:47.830Z,5.20
2023-11-30T05:07:15.406Z,8.45
2023-11-30T05:09:42.836Z,5.15
2023-11-30T05:12:10.400Z,4.72
2023-11-30T05:14:40.345Z,6.25
2023-11-30T05:17:07.810Z,4.93
2023-11-30T05:19:35.266Z,6.80
2023-11-30T05:22:05.285Z,5.93
2023-11-30T05:24:32.840Z,5.00
2023-11-30T05:27:00.362Z,3.83
2023-11-30T05:29:27.912Z,3.83
2023-11-30T05:31:55.754Z,5.95
2023-11-30T05:34:23.165Z,5.43
2023-11-30T05:36:53.055Z,4.15
2023-11-30T05:39:20.495Z,3.90
2023-11-30T05:41:48.413Z,13.15
2023-11-30T05:44:18.263Z,12.85
2023-11-30T05:46:48.075Z,10.75
2023-11-30T05:49:15.877Z,4.20
2023-11-30T05:51:43.613Z,2.42
2023-11-30T05:54:11.703Z,1.33
2023-11-30T05:56:42.508Z,2.00
2023-11-30T05:59:10.158Z,2.78
2023-11-30T06:01:37.661Z,1.55
2023-11-30T06:04:05.387Z,2.75
2023-11-30T06:06:35.216Z,1.42
2023-11-30T06:09:02.744Z,3.20
2023-11-30T06:11:30.274Z,1.73
2023-11-30T06:13:57.981Z,1.30
2023-11-30T06:16:25.402Z,0.80
2023-11-30T06:18:52.855Z,2.58
2023-11-30T06:21:20.372Z,3.35
2023-11-30T06:23:47.839Z,3.00
2023-11-30T06:26:15.273Z,3.58
2023-11-30T06:28:42.749Z,1.15
2023-11-30T06:31:10.743Z,1.80
2023-11-30T06:33:38.197Z,2.55
2023-11-30T06:36:05.992Z,4.63
2023-11-30T06:38:33.594Z,3.60
2023-11-30T06:41:01.537Z,7.00
2023-11-30T06:43:30.213Z,3.75
2023-11-30T06:45:57.683Z,6.07
2023-11-30T06:48:26.776Z,4.57
2023-11-30T06:50:54.324Z,5.78
2023-11-30T06:53:21.894Z,6.70
2023-11-30T06:55:49.326Z,6.30
2023-11-30T06:58:19.004Z,4.75
2023-11-30T07:00:46.597Z,7.25
2023-11-30T07:03:14.497Z,5.20
2023-11-30T07:05:42.175Z,5.30
2023-11-30T07:08:12.581Z,8.15
2023-11-30T07:10:43.416Z,5.22
2023-11-30T07:13:10.904Z,1.92
2023-11-30T07:15:41.076Z,2.38
2023-11-30T07:18:10.395Z,7.35
2023-11-30T07:20:38.236Z,4.03
2023-11-30T07:23:06.185Z,8.55
2023-11-30T07:25:33.678Z,7.88
2023-11-30T07:28:01.156Z,6.57
2023-11-30T07:30:28.679Z,5.22
2023-11-30T07:32:56.275Z,5.30
2023-11-30T07:35:23.997Z,5.38
2023-11-30T07:37:51.510Z,7.78
2023-11-30T07:40:19.762Z,5.25
2023-11-30T07:42:47.216Z,8.68
2023-11-30T07:45:15.368Z,6.68
2023-11-30T07:47:42.876Z,9.18
2023-11-30T07:50:10.535Z,10.40
2023-11-30T07:52:38.834Z,6.05
2023-11-30T07:55:06.550Z,9.55
2023-11-30T07:57:34.239Z,8.90
2023-11-30T08:00:03.969Z,6.68
2023-11-30T08:02:31.565Z,7.72
2023-11-30T08:05:03.064Z,6.13
2023-11-30T08:07:30.648Z,5.63
2023-11-30T08:09:58.622Z,6.30
2023-11-30T08:12:26.114Z,7.50
2023-11-30T08:14:56.192Z,6.05
2023-11-30T08:17:23.752Z,4.93
2023-11-30T08:19:52.381Z,6.13
2023-11-30T08:22:19.928Z,5.95
2023-11-30T08:24:47.584Z,5.30
2023-11-30T08:27:15.060Z,5.65
2023-11-30T08:29:45.422Z,5.95
2023-11-30T08:32:14.531Z,3.50
2023-11-30T08:34:41.997Z,4.93
2023-11-30T08:37:09.500Z,5.35
2023-11-30T08:39:37.136Z,6.13
2023-11-30T08:42:05.199Z,3.88
2023-11-30T08:44:36.382Z,4.60
2023-11-30T08:47:04.033Z,4.93
2023-11-30T08:49:31.485Z,7.43
2023-11-30T08:52:01.326Z,5.13
2023-11-30T08:54:28.830Z,4.93
2023-11-30T08:56:56.264Z,5.68
2023-11-30T08:59:23.879Z,5.13
2023-11-30T09:01:51.690Z,6.35
2023-11-30T09:04:21.547Z,6.18
2023-11-30T09:06:51.643Z,5.10
2023-11-30T09:11:46.247Z,8.73
2023-11-30T09:14:13.724Z,8.77
2023-11-30T09:16:41.374Z,7.25
2023-11-30T09:19:08.813Z,5.63
2023-11-30T09:21:36.302Z,6.32
2023-11-30T09:24:05.846Z,9.80
2023-11-30T09:26:33.437Z,7.28
2023-11-30T09:29:01.070Z,9.60
2023-11-30T09:31:28.772Z,5.35
2023-11-30T09:33:56.346Z,6.43
2023-11-30T09:36:23.965Z,8.18
2023-11-30T09:38:51.855Z,8.48
2023-11-30T09:41:22.407Z,6.43
2023-11-30T09:43:51.980Z,8.30
2023-11-30T09:46:19.641Z,7.65
2023-11-30T09:48:49.966Z,5.32
2023-11-30T09:51:21.741Z,6.60
2023-11-30T09:53:52.137Z,8.43
2023-11-30T09:56:21.913Z,8.02
2023-11-30T09:58:49.468Z,8.50
2023-11-30T10:01:19.360Z,8.25
2023-11-30T10:03:46.850Z,4.07
2023-11-30T10:06:17.958Z,5.63
2023-11-30T10:08:45.661Z,2.70
2023-11-30T10:11:13.857Z,4.22
2023-11-30T10:13:41.423Z,2.25
2023-11-30T10:16:09.315Z,5.30
2023-11-30T10:18:37.039Z,4.53
2023-11-30T10:21:04.880Z,2.78
2023-11-30T10:23:35.141Z,4.43
2023-11-30T10:26:03.772Z,3.47
2023-11-30T10:28:31.497Z,6.80
2023-11-30T10:31:04.162Z,7.47
2023-11-30T10:33:36.850Z,6.57
2023-11-30T10:36:06.847Z,18.52
2023-11-30T10:38:37.220Z,10.82
2023-11-30T10:41:13.816Z,8.90
2023-11-30T10:43:48.078Z,7.03
2023-11-30T10:46:17.677Z,5.13
2023-11-30T10:48:45.203Z,9.82
2023-11-30T10:51:13.351Z,5.30
2023-11-30T10:53:47.264Z,9.68
2023-11-30T10:56:15.676Z,6.72
2023-11-30T10:58:46.217Z,8.13
2023-11-30T11:01:15.148Z,11.07
2023-11-30T11:03:46.687Z,12.93
2023-11-30T11:06:16.334Z,9.80
2023-11-30T11:09:09.056Z,12.55
2023-11-30T11:11:40.225Z,10.70
2023-11-30T11:14:07.741Z,7.88
2023-11-30T11:16:38.624Z,11.60
2023-11-30T11:19:06.717Z,15.52
2023-11-30T11:21:41.181Z,9.25
2023-11-30T11:24:09.564Z,10.40
2023-11-30T11:26:46.990Z,11.40
2023-11-30T11:29:24.215Z,9.50
2023-11-30T11:31:59.642Z,8.85
2023-11-30T11:34:27.204Z,7.00
2023-11-30T11:36:58.257Z,11.85
2023-11-30T11:39:28.137Z,10.65
2023-11-30T11:41:57.970Z,6.95
2023-11-30T11:44:26.198Z,11.75
2023-11-30T11:46:57.134Z,12.13
2023-11-30T11:49:24.899Z,13.40
2023-11-30T11:51:54.832Z,19.08
2023-11-30T11:54:27.765Z,15.05
2023-11-30T11:56:57.173Z,16.23
2023-11-30T11:59:28.655Z,13.48
2023-11-30T12:01:57.156Z,16.75
2023-11-30T12:04:38.208Z,15.85
2023-11-30T12:07:19.174Z,12.18
2023-11-30T12:09:58.505Z,16.40
2023-11-30T12:12:39.203Z,18.42
2023-11-30T12:15:07.139Z,11.27
2023-11-30T12:17:40.548Z,11.30
2023-11-30T12:20:09.743Z,11.18
2023-11-30T12:22:40.201Z,11.50
2023-11-30T12:25:13.917Z,12.85
2023-11-30T12:27:41.464Z,14.90
2023-11-30T12:30:10.208Z,16.77
2023-11-30T12:32:41.912Z,17.77
2023-11-30T12:35:09.927Z,16.35
2023-11-30T12:37:39.335Z,12.35
2023-11-30T12:40:11.939Z,12.90
2023-11-30T12:42:45.961Z,12.18
2023-11-30T12:45:14.459Z,13.32
2023-11-30T12:47:47.478Z,13.88
2023-11-30T12:50:17.897Z,13.05
2023-11-30T12:55:18.703Z,14.48
2023-11-30T12:57:47.191Z,13.55
2023-11-30T13:00:21.546Z,11.48
2023-11-30T13:02:49.973Z,12.73
2023-11-30T13:05:20.765Z,13.10
2023-11-30T13:07:53.812Z,11.88
2023-11-30T13:10:25.450Z,12.75
2023-11-30T13:12:53.353Z,15.30
2023-11-30T13:15:21.730Z,14.63
2023-11-30T13:17:50.387Z,16.63
2023-11-30T13:20:21.042Z,11.75
2023-11-30T13:22:58.737Z,13.43
2023-11-30T13:25:28.124Z,17.67
2023-11-30T13:27:58.304Z,13.75
2023-11-30T13:33:00.377Z,14.10
2023-11-30T13:35:32.942Z,17.63
2023-11-30T13:38:00.527Z,13.05
2023-11-30T13:40:28.299Z,17.30
2023-11-30T13:42:55.804Z,14.38
2023-11-30T13:45:29.697Z,13.57
2023-11-30T13:47:57.411Z,16.35
2023-11-30T13:50:35.027Z,19.45
2023-11-30T13:53:07.930Z,20.17
2023-11-30T13:55:37.806Z,26.35
2023-11-30T13:58:11.755Z,19.15
2023-11-30T14:00:43.795Z,21.63
2023-11-30T14:03:11.371Z,15.80
2023-11-30T14:05:38.980Z,13.43
2023-11-30T14:08:06.778Z,12.00
2023-11-30T14:10:34.784Z,15.18
2023-11-30T14:13:05.370Z,14.77
2023-11-30T14:15:33.518Z,16.00
2023-11-30T14:18:01.785Z,16.05
2023-11-30T14:20:29.902Z,15.13
2023-11-30T14:23:00.127Z,14.68
2023-11-30T14:25:30.193Z,18.35
2023-11-30T14:28:00.960Z,19.13
2023-11-30T14:30:32.247Z,21.17
2023-11-30T14:32:59.879Z,19.65
2023-11-30T14:35:27.503Z,21.60
2023-11-30T14:37:55.042Z,19.80
2023-11-30T14:40:26.400Z,23.77
2023-11-30T14:42:54.181Z,23.00
2023-11-30T14:45:21.791Z,23.50
2023-11-30T14:47:55.621Z,22.67
2023-11-30T14:50:25.803Z,25.50
2023-11-30T14:55:27.469Z,22.15
2023-11-30T14:57:55.422Z,19.33
2023-11-30T15:00:26.459Z,22.77
2023-11-30T15:02:54.123Z,20.23
2023-11-30T15:05:24.284Z,26.55
2023-11-30T15:07:54.628Z,18.75
2023-11-30T15:10:28.668Z,27.48
2023-11-30T15:12:56.181Z,18.55
2023-11-30T15:15:27.706Z,21.70
2023-11-30T15:17:58.722Z,18.92
2023-11-30T15:20:26.276Z,21.02
2023-11-30T15:22:56.984Z,22.05
2023-11-30T15:25:27.870Z,27.92
2023-11-30T15:27:57.643Z,22.13
2023-11-30T15:30:27.709Z,20.30
2023-11-30T15:32:55.407Z,22.88
2023-11-30T15:35:26.001Z,22.92
2023-11-30T15:37:55.953Z,19.27
2023-11-30T15:40:24.357Z,23.88
2023-11-30T15:42:54.510Z,22.70
2023-11-30T15:45:27.624Z,18.83
2023-11-30T15:47:58.409Z,22.55
2023-11-30T15:50:28.963Z,26.25
2023-11-30T15:52:56.491Z,18.38
2023-11-30T15:55:24.230Z,20.58
2023-11-30T15:57:52.030Z,20.27
2023-11-30T16:00:21.618Z,27.90
2023-11-30T16:02:52.272Z,26.65
2023-11-30T16:05:19.972Z,24.38
2023-11-30T16:07:51.740Z,18.70
2023-11-30T16:10:19.401Z,23.75
2023-11-30T16:12:48.688Z,15.60
2023-11-30T16:15:17.583Z,27.30
2023-11-30T16:17:47.606Z,28.20
2023-11-30T16:20:18.066Z,25.08
2023-11-30T16:22:46.759Z,22.13
2023-11-30T16:25:16.893Z,17.75
2023-11-30T16:30:12.791Z,25.83
2023-11-30T16:32:41.448Z,22.30
2023-11-30T16:35:09.386Z,20.85
2023-11-30T16:37:37.079Z,21.58
2023-11-30T16:40:05.992Z,21.15
2023-11-30T16:42:33.625Z,23.45
2023-11-30T16:45:02.223Z,23.80
2023-11-30T16:47:29.783Z,25.23
2023-11-30T16:49:57.407Z,24.25
2023-11-30T16:52:24.866Z,22.58
2023-11-30T16:54:53.120Z,24.83
2023-11-30T16:57:23.582Z,22.52
2023-11-30T16:59:53.309Z,23.23
2023-11-30T17:02:20.869Z,20.80
2023-11-30T17:04:51.519Z,24.15
2023-11-30T17:07:20.445Z,32.45
2023-11-30T17:09:49.902Z,22.67
2023-11-30T17:12:18.071Z,25.75
2023-11-30T17:14:45.585Z,22.20
2023-11-30T17:17:13.027Z,23.48
2023-11-30T17:19:40.505Z,22.17
2023-11-30T17:22:08.034Z,19.02
2023-11-30T17:24:38.346Z,21.88
2023-11-30T17:27:05.941Z,20.15
2023-11-30T17:29:38.886Z,18.85
2023-11-30T17:32:09.539Z,20.63
2023-11-30T17:34:37.457Z,21.00
2023-11-30T17:37:05.051Z,21.98
2023-11-30T17:39:32.521Z,19.25
2023-11-30T17:41:59.953Z,20.13
2023-11-30T17:44:28.398Z,25.80
2023-11-30T17:46:55.925Z,21.42
2023-11-30T17:49:24.176Z,21.00
2023-11-30T17:51:51.917Z,22.63
2023-11-30T17:54:19.608Z,22.75
2023-11-30T17:56:47.115Z,21.23
2023-11-30T17:59:14.659Z,22.80
2023-11-30T18:01:42.327Z,22.05
2023-11-30T18:04:09.949Z,21.38
2023-11-30T18:06:37.634Z,22.08
2023-11-30T18:09:05.413Z,23.77
2023-11-30T18:11:33.065Z,21.30
2023-11-30T18:14:00.531Z,26.27
2023-11-30T18:16:28.879Z,25.38
2023-11-30T18:18:56.491Z,23.58
2023-11-30T18:21:24.209Z,23.63
2023-11-30T18:23:51.683Z,21.50
2023-11-30T18:26:21.188Z,23.98
2023-11-30T18:28:48.695Z,20.98
2023-11-30T18:31:22.020Z,26.75
2023-11-30T18:33:50.806Z,24.20
2023-11-30T18:36:18.410Z,26.38
2023-11-30T18:38:50.724Z,24.25
2023-11-30T18:41:20.870Z,20.88
2023-11-30T18:43:50.169Z,21.65
2023-11-30T18:46:21.374Z,20.90
2023-11-30T18:48:49.001Z,20.30
2023-11-30T18:51:16.481Z,23.35
2023-11-30T18:53:44.027Z,24.90
2023-11-30T18:56:11.641Z,21.42
2023-11-30T18:58:42.722Z,23.80
2023-11-30T19:01:11.676Z,21.58
2023-11-30T19:03:39.465Z,23.63
2023-11-30T19:06:07.237Z,21.85
2023-11-30T19:08:34.934Z,22.17
2023-11-30T19:11:02.350Z,22.15
2023-11-30T19:13:29.770Z,21.05
2023-11-30T19:15:57.326Z,22.33
2023-11-30T19:18:24.888Z,23.88
2023-11-30T19:20:52.597Z,23.80
2023-11-30T19:23:20.084Z,21.90
2023-11-30T19:25:47.477Z,23.13
2023-11-30T19:28:15.114Z,24.50
2023-11-30T19:30:44.970Z,25.00
2023-11-30T19:33:12.576Z,26.33
2023-11-30T19:35:40.159Z,24.52
2023-11-30T19:38:07.648Z,25.30
2023-11-30T19:40:35.115Z,27.85
2023-11-30T19:43:03.601Z,25.42
2023-11-30T19:45:31.227Z,20.25
2023-11-30T19:48:00.047Z,22.23
2023-11-30T19:50:28.836Z,22.88
2023-11-30T19:52:56.278Z,23.80
2023-11-30T19:55:24.339Z,24.27
2023-11-30T19:57:51.868Z,25.13
2023-11-30T20:00:19.634Z,23.55
2023-11-30T20:02:47.269Z,23.15
2023-11-30T20:05:14.985Z,27.40
2023-11-30T20:07:45.456Z,25.40
2023-11-30T20:10:13.076Z,24.80
2023-11-30T20:12:43.049Z,21.73
2023-11-30T20:15:10.861Z,25.33
2023-11-30T20:17:38.926Z,24.75
2023-11-30T20:20:06.650Z,25.23
2023-11-30T20:22:34.188Z,25.58
2023-11-30T20:25:01.793Z,22.13
2023-11-30T20:27:29.261Z,24.77
2023-11-30T20:29:56.772Z,21.65
2023-11-30T20:32:25.563Z,25.55
2023-11-30T20:34:53.390Z,23.13
2023-11-30T20:37:23.439Z,17.90
2023-11-30T20:39:50.914Z,22.25
2023-11-30T20:42:18.459Z,22.75
2023-11-30T20:44:47.976Z,20.50
2023-11-30T20:47:16.511Z,23.67
2023-11-30T20:49:44.013Z,17.40
2023-11-30T20:52:14.208Z,24.25
2023-11-30T20:54:42.004Z,26.30
2023-11-30T20:57:09.816Z,24.52
2023-11-30T20:59:40.630Z,20.75
2023-11-30T21:02:09.591Z,19.10
2023-11-30T21:04:37.811Z,21.63
2023-11-30T21:07:05.563Z,20.48
2023-11-30T21:09:33.198Z,19.15
2023-11-30T21:12:00.765Z,23.33
2023-11-30T21:14:30.600Z,21.17
2023-11-30T21:16:58.161Z,20.40
2023-11-30T21:19:26.635Z,24.48
2023-11-30T21:21:54.183Z,20.65
2023-11-30T21:24:22.129Z,20.13
2023-11-30T21:26:49.729Z,21.38
2023-11-30T21:29:17.476Z,20.48
2023-11-30T21:31:44.947Z,21.65
2023-11-30T21:34:12.456Z,22.67
2023-11-30T21:36:43.624Z,22.10
2023-11-30T21:39:11.359Z,25.48
2023-11-30T21:41:38.900Z,21.52
2023-11-30T21:44:08.848Z,23.42
2023-11-30T21:46:40.503Z,23.90
2023-11-30T21:49:10.792Z,20.77
2023-11-30T21:51:38.577Z,25.98
2023-11-30T21:54:06.056Z,24.60
2023-11-30T21:56:33.779Z,24.73
2023-11-30T21:59:01.408Z,25.98
2023-11-30T22:01:29.149Z,23.67
2023-11-30T22:03:57.285Z,20.83
2023-11-30T22:06:27.275Z,21.10
2023-11-30T22:08:54.747Z,22.45
2023-11-30T22:11:22.249Z,23.45
2023-11-30T22:13:52.101Z,26.60
2023-11-30T22:16:26.545Z,22.70
2023-11-30T22:19:02.936Z,22.08
2023-11-30T22:21:31.114Z,22.45
2023-11-30T22:23:59.785Z,25.58
2023-11-30T22:26:27.743Z,24.08
2023-11-30T22:28:57.053Z,23.73
2023-11-30T22:31:25.025Z,20.88
2023-11-30T22:33:52.699Z,21.80
2023-11-30T22:36:23.290Z,23.73
2023-11-30T22:38:50.817Z,21.85
2023-11-30T22:41:18.301Z,19.95
2023-11-30T22:43:47.062Z,21.33
2023-11-30T22:46:18.483Z,26.52
2023-11-30T22:48:47.006Z,23.80
2023-11-30T22:51:14.614Z,23.58
2023-11-30T22:53:44.445Z,22.40
2023-11-30T22:56:19.129Z,23.58
2023-11-30T22:58:47.244Z,22.35
2023-11-30T23:01:18.219Z,25.15
2023-11-30T23:03:46.410Z,27.20
2023-11-30T23:06:14.853Z,24.02
2023-11-30T23:08:42.735Z,29.30
2023-11-30T23:11:10.723Z,25.20
2023-11-30T23:13:38.555Z,24.05
2023-11-30T23:16:06.326Z,27.02
2023-11-30T23:18:33.941Z,24.90
2023-11-30T23:21:01.581Z,23.55
2023-11-30T23:23:31.761Z,24.30
2023-11-30T23:28:28.723Z,22.90
2023-11-30T23:30:56.258Z,21.58
2023-11-30T23:33:23.849Z,23.70
2023-11-30T23:35:51.306Z,24.52
2023-11-30T23:38:21.453Z,21.95
2023-11-30T23:43:19.322Z,24.73
2023-11-30T23:45:46.836Z,21.98
2023-11-30T23:48:14.562Z,22.67
2023-11-30T23:50:42.241Z,21.20
2023-11-30T23:53:12.105Z,21.13
2023-11-30T23:55:41.870Z,22.50
2023-11-30T23:58:09.385Z,23.73
